Dessel, Belgium
Current Conditions -  °F | °C
As of 10:55 AM on Saturday 22 Nov 2014 (Local Time) from EBBL Reporting Station
Clear Clear  
Wind Chill: 46°   Ceiling: Unl
Heat Index: 46°   Visibility: NA
Dew Point: 43°   Wind: 2mph
Humidity: 87%   Direction: NA
Pressure: 30.06"   Gusts: NA
Location:  51.24°N, 5.11°E
Report Text: EBBL 220955Z AUTO VRB02KT //// NCD 08/06 Q1018
Loading
Personal Weather Stations






























Interactive Weather Map New forecast layout! Learn more

10-Day Weather Forecast

Advertisements
Track Severe Weather on mobile